createdAt,value
2023-08-29T00:00:19.801Z,0.00
2023-08-29T00:01:19.824Z,0.00
2023-08-29T00:02:19.791Z,0.00
2023-08-29T00:03:19.802Z,0.00
2023-08-29T00:04:19.772Z,0.00
2023-08-29T00:05:19.769Z,0.00
2023-08-29T00:06:19.738Z,0.00
2023-08-29T00:07:19.712Z,0.00
2023-08-29T00:08:19.739Z,0.00
2023-08-29T00:09:19.689Z,0.00
2023-08-29T00:10:19.701Z,0.00
2023-08-29T00:11:19.669Z,0.00
2023-08-29T00:12:19.691Z,0.00
2023-08-29T00:13:19.656Z,0.00
2023-08-29T00:14:19.681Z,0.00
2023-08-29T00:15:19.636Z,0.00
2023-08-29T00:16:19.650Z,0.00
2023-08-29T00:17:19.624Z,0.00
2023-08-29T00:18:19.609Z,0.00
2023-08-29T00:19:19.699Z,0.00
2023-08-29T00:20:19.607Z,0.00
2023-08-29T00:21:19.560Z,0.00
2023-08-29T00:22:19.681Z,0.00
2023-08-29T00:23:19.580Z,0.00
2023-08-29T00:24:19.941Z,0.00
2023-08-29T00:25:19.515Z,0.00
2023-08-29T00:26:19.571Z,0.00
2023-08-29T00:27:19.508Z,0.00
2023-08-29T00:28:19.492Z,0.00
2023-08-29T00:29:19.504Z,0.00
2023-08-29T00:30:19.489Z,0.00
2023-08-29T00:31:19.478Z,0.00
2023-08-29T00:32:19.467Z,0.00
2023-08-29T00:33:19.470Z,0.00
2023-08-29T00:34:19.461Z,0.00
2023-08-29T00:35:19.424Z,0.00
2023-08-29T00:36:19.417Z,0.00
2023-08-29T00:37:19.462Z,0.00
2023-08-29T00:38:19.470Z,0.00
2023-08-29T00:39:19.705Z,0.00
2023-08-29T00:40:19.386Z,0.00
2023-08-29T00:41:19.376Z,0.00
2023-08-29T00:42:19.378Z,0.00
2023-08-29T00:43:19.371Z,0.00
2023-08-29T00:44:19.404Z,0.00
2023-08-29T00:45:19.351Z,0.00
2023-08-29T00:46:19.368Z,0.00
2023-08-29T00:47:19.300Z,0.00
2023-08-29T00:48:19.288Z,0.00
2023-08-29T00:49:19.292Z,0.00
2023-08-29T00:50:19.269Z,0.00
2023-08-29T00:51:19.261Z,0.00
2023-08-29T00:52:19.266Z,0.00
2023-08-29T00:53:19.389Z,0.00
2023-08-29T00:54:19.259Z,0.00
2023-08-29T00:55:19.337Z,0.00
2023-08-29T00:56:19.251Z,0.00
2023-08-29T00:57:19.193Z,0.00
2023-08-29T00:58:19.183Z,0.00
2023-08-29T00:59:19.159Z,0.00
2023-08-29T01:00:19.198Z,0.00
2023-08-29T01:01:19.213Z,0.00
2023-08-29T01:02:19.206Z,0.00
2023-08-29T01:03:19.194Z,0.00
2023-08-29T01:04:19.116Z,0.00
2023-08-29T01:05:19.133Z,0.00
2023-08-29T01:06:19.101Z,0.00
2023-08-29T01:07:19.081Z,0.00
2023-08-29T01:08:19.079Z,0.00
2023-08-29T01:09:19.069Z,0.00
2023-08-29T01:10:19.057Z,0.00
2023-08-29T01:11:19.201Z,0.00
2023-08-29T01:12:19.045Z,0.00
2023-08-29T01:13:19.007Z,0.00
2023-08-29T01:14:19.015Z,0.00
2023-08-29T01:15:19.069Z,0.00
2023-08-29T01:16:19.050Z,0.00
2023-08-29T01:17:18.966Z,0.00
2023-08-29T01:18:18.993Z,0.00
2023-08-29T01:19:18.981Z,0.00
2023-08-29T01:20:18.949Z,0.00
2023-08-29T01:21:19.108Z,0.00
2023-08-29T01:22:18.940Z,0.00
2023-08-29T01:23:18.900Z,0.00
2023-08-29T01:24:18.911Z,0.00
2023-08-29T01:25:18.925Z,0.00
2023-08-29T01:26:18.902Z,0.00
2023-08-29T01:27:18.853Z,0.00
2023-08-29T01:28:18.887Z,0.00
2023-08-29T01:29:18.843Z,0.00
2023-08-29T01:30:18.844Z,0.00
2023-08-29T01:31:18.875Z,0.00
2023-08-29T01:32:18.892Z,0.00
2023-08-29T01:33:18.855Z,0.00
2023-08-29T01:34:18.813Z,0.00
2023-08-29T01:35:18.788Z,0.00
2023-08-29T01:36:18.769Z,0.00
2023-08-29T01:37:18.752Z,0.00
2023-08-29T01:38:18.913Z,0.00
2023-08-29T01:39:18.750Z,0.00
2023-08-29T01:40:18.762Z,0.00
2023-08-29T01:41:18.732Z,0.00
2023-08-29T01:42:18.702Z,0.00
2023-08-29T01:43:18.718Z,0.00
2023-08-29T01:44:18.717Z,0.00
2023-08-29T01:45:18.711Z,0.00
2023-08-29T01:46:18.715Z,0.00
2023-08-29T01:47:18.741Z,0.00
2023-08-29T01:48:18.648Z,0.00
2023-08-29T01:49:18.630Z,0.00
2023-08-29T01:50:18.636Z,0.00
2023-08-29T01:51:18.610Z,0.00
2023-08-29T01:52:18.625Z,0.00
2023-08-29T01:53:18.602Z,0.00
2023-08-29T01:54:18.587Z,0.00
2023-08-29T01:55:18.655Z,0.00
2023-08-29T01:56:18.629Z,0.00
2023-08-29T01:57:18.549Z,0.00
2023-08-29T01:58:18.564Z,0.00
2023-08-29T01:59:18.519Z,0.00
2023-08-29T02:00:18.545Z,0.00
2023-08-29T02:01:23.390Z,0.00
2023-08-29T02:02:18.491Z,0.00
2023-08-29T02:03:18.490Z,0.00
2023-08-29T02:04:18.519Z,0.00
2023-08-29T02:05:18.492Z,0.00
2023-08-29T02:06:18.563Z,0.00
2023-08-29T02:07:18.443Z,0.00
2023-08-29T02:08:18.427Z,0.00
2023-08-29T02:09:18.394Z,0.00
2023-08-29T02:10:18.443Z,0.00
2023-08-29T02:11:18.395Z,0.00
2023-08-29T02:12:18.398Z,0.00
2023-08-29T02:13:18.360Z,0.00
2023-08-29T02:14:18.369Z,0.00
2023-08-29T02:15:18.366Z,0.00
2023-08-29T02:16:18.363Z,0.00
2023-08-29T02:17:18.317Z,0.00
2023-08-29T02:18:18.341Z,0.00
2023-08-29T02:19:18.310Z,0.00
2023-08-29T02:20:18.443Z,0.00
2023-08-29T02:21:18.304Z,0.00
2023-08-29T02:22:18.336Z,0.00
2023-08-29T02:23:18.347Z,0.00
2023-08-29T02:24:18.245Z,0.00
2023-08-29T02:25:18.255Z,0.00
2023-08-29T02:26:18.248Z,0.00
2023-08-29T02:27:18.266Z,0.00
2023-08-29T02:28:18.213Z,0.00
2023-08-29T02:29:18.244Z,0.00
2023-08-29T02:30:18.199Z,0.00
2023-08-29T02:31:18.213Z,0.00
2023-08-29T02:32:18.190Z,0.00
2023-08-29T02:33:18.202Z,0.00
2023-08-29T02:34:18.162Z,0.00
2023-08-29T02:35:18.123Z,0.00
2023-08-29T02:36:18.196Z,0.00
2023-08-29T02:37:18.101Z,0.00
2023-08-29T02:38:18.246Z,0.00
2023-08-29T02:39:18.133Z,0.00
2023-08-29T02:40:18.089Z,0.00
2023-08-29T02:41:18.090Z,0.00
2023-08-29T02:42:18.115Z,0.00
2023-08-29T02:43:18.061Z,0.00
2023-08-29T02:44:18.088Z,0.00
2023-08-29T02:45:18.076Z,0.00
2023-08-29T02:46:18.155Z,0.00
2023-08-29T02:47:18.001Z,0.00
2023-08-29T02:48:18.084Z,0.00
2023-08-29T02:49:17.978Z,0.00
2023-08-29T02:50:17.978Z,0.00
2023-08-29T02:51:17.960Z,0.00
2023-08-29T02:52:18.002Z,0.00
2023-08-29T02:53:17.965Z,0.00
2023-08-29T02:54:17.947Z,0.00
2023-08-29T02:55:17.910Z,0.00
2023-08-29T02:56:17.946Z,0.00
2023-08-29T02:57:17.907Z,0.00
2023-08-29T02:58:17.974Z,0.00
2023-08-29T02:59:17.882Z,0.00
2023-08-29T03:00:17.906Z,0.00
2023-08-29T03:01:17.889Z,0.00
2023-08-29T03:02:17.878Z,0.00
2023-08-29T03:03:18.105Z,0.00
2023-08-29T03:04:17.834Z,0.00
2023-08-29T03:05:17.815Z,0.00
2023-08-29T03:06:17.841Z,0.00
2023-08-29T03:07:17.778Z,0.00
2023-08-29T03:08:17.815Z,0.00
2023-08-29T03:09:17.759Z,0.00
2023-08-29T03:10:17.772Z,0.00
2023-08-29T03:11:17.741Z,0.00
2023-08-29T03:12:17.768Z,0.00
2023-08-29T03:13:17.729Z,0.00
2023-08-29T03:14:17.735Z,0.00
2023-08-29T03:15:17.723Z,0.00
2023-08-29T03:16:20.131Z,0.00
2023-08-29T03:17:17.712Z,0.00
2023-08-29T03:18:17.706Z,0.00
2023-08-29T03:19:17.687Z,0.00
2023-08-29T03:20:17.700Z,0.00
2023-08-29T03:21:17.653Z,0.00
2023-08-29T03:22:17.623Z,0.00
2023-08-29T03:23:17.718Z,0.00
2023-08-29T03:24:17.774Z,0.00
2023-08-29T03:25:17.595Z,0.00
2023-08-29T03:26:17.581Z,0.00
2023-08-29T03:27:17.764Z,0.00
2023-08-29T03:28:17.707Z,0.00
2023-08-29T03:29:17.748Z,0.00
2023-08-29T03:30:17.669Z,0.00
2023-08-29T03:31:17.604Z,0.00
2023-08-29T03:32:17.564Z,0.00
2023-08-29T03:33:17.716Z,0.00
2023-08-29T03:34:17.546Z,0.00
2023-08-29T03:35:17.595Z,0.00
2023-08-29T03:36:17.561Z,0.00
2023-08-29T03:37:17.713Z,0.00
2023-08-29T03:38:17.470Z,0.00
2023-08-29T03:39:18.121Z,0.00
2023-08-29T03:40:25.973Z,0.00
2023-08-29T03:41:20.177Z,0.00
2023-08-29T03:42:17.392Z,0.00
2023-08-29T03:43:18.117Z,0.00
2023-08-29T03:44:17.377Z,0.00
2023-08-29T03:45:17.398Z,0.00
2023-08-29T03:46:17.446Z,0.00
2023-08-29T03:47:17.337Z,0.00
2023-08-29T03:48:28.419Z,0.00
2023-08-29T03:49:18.330Z,0.00
2023-08-29T03:50:19.943Z,0.00
2023-08-29T03:51:17.312Z,0.00
2023-08-29T03:52:17.310Z,0.00
2023-08-29T03:53:17.289Z,0.00
2023-08-29T03:54:17.278Z,0.00
2023-08-29T03:55:17.300Z,0.00
2023-08-29T03:56:17.252Z,0.00
2023-08-29T03:57:17.277Z,0.00
2023-08-29T03:58:17.271Z,0.00
2023-08-29T03:59:17.247Z,0.00
2023-08-29T04:00:17.399Z,0.00
2023-08-29T04:01:17.219Z,0.00
2023-08-29T04:02:17.201Z,0.00
2023-08-29T04:03:17.374Z,0.00
2023-08-29T04:04:17.335Z,4.00
2023-08-29T04:05:17.514Z,4.00
2023-08-29T04:06:17.147Z,4.00
2023-08-29T04:07:17.171Z,4.00
2023-08-29T04:08:17.145Z,4.00
2023-08-29T04:09:17.125Z,8.00
2023-08-29T04:10:17.110Z,8.00
2023-08-29T04:11:17.089Z,4.00
2023-08-29T04:12:17.074Z,8.00
2023-08-29T04:13:17.105Z,12.00
2023-08-29T04:14:17.073Z,12.00
2023-08-29T04:15:17.099Z,16.00
2023-08-29T04:16:17.090Z,16.00
2023-08-29T04:17:17.085Z,20.00
2023-08-29T04:18:17.099Z,24.00
2023-08-29T04:19:17.024Z,28.00
2023-08-29T04:20:16.999Z,32.00
2023-08-29T04:21:16.993Z,32.00
2023-08-29T04:22:16.985Z,40.00
2023-08-29T04:23:16.998Z,44.00
2023-08-29T04:24:16.955Z,52.00
2023-08-29T04:25:16.968Z,52.00
2023-08-29T04:26:16.942Z,60.00
2023-08-29T04:27:16.941Z,68.00
2023-08-29T04:28:16.917Z,76.00
2023-08-29T04:29:16.906Z,84.00
2023-08-29T04:30:16.911Z,92.00
2023-08-29T04:31:16.919Z,104.00
2023-08-29T04:32:16.869Z,112.00
2023-08-29T04:33:16.900Z,120.00
2023-08-29T04:34:16.868Z,132.00
2023-08-29T04:35:16.860Z,140.00
2023-08-29T04:36:16.834Z,148.00
2023-08-29T04:37:16.820Z,160.00
2023-08-29T04:38:16.805Z,172.00
2023-08-29T04:39:16.860Z,184.00
2023-08-29T04:40:16.769Z,196.00
2023-08-29T04:41:16.813Z,216.00
2023-08-29T04:42:16.761Z,232.00
2023-08-29T04:43:16.774Z,252.00
2023-08-29T04:44:16.772Z,276.00
2023-08-29T04:45:16.750Z,304.00
2023-08-29T04:46:16.765Z,328.00
2023-08-29T04:47:16.718Z,356.00
2023-08-29T04:48:16.746Z,384.00
2023-08-29T04:49:16.710Z,412.00
2023-08-29T04:50:16.687Z,436.00
2023-08-29T04:51:16.687Z,460.00
2023-08-29T04:52:16.677Z,484.00
2023-08-29T04:53:16.670Z,508.00
2023-08-29T04:54:16.649Z,528.00
2023-08-29T04:55:16.643Z,552.00
2023-08-29T04:56:16.625Z,580.00
2023-08-29T04:57:16.607Z,604.00
2023-08-29T04:58:16.591Z,632.00
2023-08-29T04:59:16.598Z,660.00
2023-08-29T05:00:16.644Z,680.00
2023-08-29T05:01:16.628Z,708.00
2023-08-29T05:02:16.544Z,728.00
2023-08-29T05:03:16.662Z,752.00
2023-08-29T05:04:16.543Z,772.00
2023-08-29T05:05:16.512Z,792.00
2023-08-29T05:06:16.510Z,812.00
2023-08-29T05:07:16.522Z,832.00
2023-08-29T05:08:16.499Z,856.00
2023-08-29T05:09:18.437Z,876.00
2023-08-29T05:10:17.460Z,904.00
2023-08-29T05:11:16.471Z,932.00
2023-08-29T05:12:16.450Z,960.00
2023-08-29T05:13:16.430Z,984.00
2023-08-29T05:14:16.425Z,1008.00
2023-08-29T05:15:16.441Z,1036.00
2023-08-29T05:16:16.425Z,1060.00
2023-08-29T05:17:16.386Z,1088.00
2023-08-29T05:18:16.401Z,1116.00
2023-08-29T05:19:16.380Z,1152.00
2023-08-29T05:20:16.379Z,1188.00
2023-08-29T05:21:16.363Z,1220.00
2023-08-29T05:22:16.330Z,1252.00
2023-08-29T05:23:16.346Z,1288.00
2023-08-29T05:24:16.306Z,1320.00
2023-08-29T05:25:16.318Z,1352.00
2023-08-29T05:26:16.287Z,1384.00
2023-08-29T05:27:16.289Z,1412.00
2023-08-29T05:28:16.268Z,1444.00
2023-08-29T05:29:16.280Z,1468.00
2023-08-29T05:30:16.240Z,1496.00
2023-08-29T05:31:16.360Z,1528.00
2023-08-29T05:32:16.348Z,1556.00
2023-08-29T05:33:16.235Z,1588.00
2023-08-29T05:34:16.224Z,1612.00
2023-08-29T05:35:16.203Z,1636.00
2023-08-29T05:36:16.183Z,1660.00
2023-08-29T05:37:16.182Z,1684.00
2023-08-29T05:38:16.163Z,1712.00
2023-08-29T05:39:16.149Z,1736.00
2023-08-29T05:40:16.128Z,1760.00
2023-08-29T05:41:16.139Z,1788.00
2023-08-29T05:42:16.103Z,1812.00
2023-08-29T05:43:16.119Z,1832.00
2023-08-29T05:44:16.097Z,1856.00
2023-08-29T05:45:16.093Z,1884.00
2023-08-29T05:46:16.089Z,1912.00
2023-08-29T05:47:16.098Z,1936.00
2023-08-29T05:48:16.069Z,1964.00
2023-08-29T05:49:16.054Z,1988.00
2023-08-29T05:50:16.047Z,2012.00
2023-08-29T05:51:16.074Z,2040.00
2023-08-29T05:52:16.017Z,2060.00
2023-08-29T05:53:16.029Z,2080.00
2023-08-29T05:54:15.996Z,2100.00
2023-08-29T05:55:16.013Z,2124.00
2023-08-29T05:56:15.963Z,2148.00
2023-08-29T05:57:15.992Z,2180.00
2023-08-29T05:58:15.938Z,2208.00
2023-08-29T05:59:15.967Z,2240.00
2023-08-29T06:00:15.935Z,2276.00
2023-08-29T06:01:15.983Z,2304.00
2023-08-29T06:02:15.913Z,2336.00
2023-08-29T06:03:16.021Z,2372.00
2023-08-29T06:04:15.871Z,2404.00
2023-08-29T06:05:15.893Z,2436.00
2023-08-29T06:06:15.850Z,2472.00
2023-08-29T06:07:15.861Z,2500.00
2023-08-29T06:08:19.786Z,2536.00
2023-08-29T06:09:15.833Z,2572.00
2023-08-29T06:10:15.842Z,2600.00
2023-08-29T06:11:15.815Z,2628.00
2023-08-29T06:12:15.799Z,2660.00
2023-08-29T06:13:15.808Z,2688.00
2023-08-29T06:14:15.784Z,2724.00
2023-08-29T06:15:15.773Z,2764.00
2023-08-29T06:16:15.783Z,2808.00
2023-08-29T06:17:15.771Z,2856.00
2023-08-29T06:18:15.788Z,2908.00
2023-08-29T06:19:15.740Z,2960.00
2023-08-29T06:20:15.699Z,3012.00
2023-08-29T06:21:15.707Z,3064.00
2023-08-29T06:22:15.722Z,3120.00
2023-08-29T06:23:15.701Z,3172.00
2023-08-29T06:24:15.767Z,3224.00
2023-08-29T06:25:15.673Z,3280.00
2023-08-29T06:26:15.689Z,3332.00
2023-08-29T06:27:15.642Z,3388.00
2023-08-29T06:28:15.618Z,3444.00
2023-08-29T06:29:15.645Z,3504.00
2023-08-29T06:30:15.577Z,3572.00
2023-08-29T06:31:15.626Z,3640.00
2023-08-29T06:32:15.624Z,3712.00
2023-08-29T06:33:15.792Z,3784.00
2023-08-29T06:34:15.556Z,3864.00
2023-08-29T06:35:15.564Z,3936.00
2023-08-29T06:36:15.530Z,4020.00
2023-08-29T06:37:15.556Z,4096.00
2023-08-29T06:38:15.495Z,4184.00
2023-08-29T06:39:15.510Z,4264.00
2023-08-29T06:40:15.490Z,4356.00
2023-08-29T06:41:15.481Z,4444.00
2023-08-29T06:42:15.522Z,4528.00
2023-08-29T06:43:15.463Z,4624.00
2023-08-29T06:44:15.469Z,4704.00
2023-08-29T06:45:15.446Z,4788.00
2023-08-29T06:46:15.530Z,4876.00
2023-08-29T06:47:15.423Z,4960.00
2023-08-29T06:48:15.415Z,5036.00
2023-08-29T06:49:15.411Z,5116.00
2023-08-29T06:50:15.381Z,5192.00
2023-08-29T06:51:15.422Z,5264.00
2023-08-29T06:52:15.369Z,5336.00
2023-08-29T06:53:15.359Z,5404.00
2023-08-29T06:54:15.360Z,5472.00
2023-08-29T06:55:15.363Z,5532.00
2023-08-29T06:56:15.309Z,5600.00
2023-08-29T06:57:15.339Z,5648.00
2023-08-29T06:58:15.303Z,5696.00
2023-08-29T06:59:15.292Z,5732.00
2023-08-29T07:00:15.332Z,5768.00
2023-08-29T07:01:15.354Z,5800.00
2023-08-29T07:02:15.261Z,5832.00
2023-08-29T07:03:15.345Z,5860.00
2023-08-29T07:04:15.273Z,5884.00
2023-08-29T07:05:15.238Z,5912.00
2023-08-29T07:06:15.196Z,5944.00
2023-08-29T07:07:15.198Z,5972.00
2023-08-29T07:08:15.190Z,6000.00
2023-08-29T07:09:15.220Z,6044.00
2023-08-29T07:10:15.173Z,6068.00
2023-08-29T07:11:15.176Z,6104.00
2023-08-29T07:12:15.138Z,6148.00
2023-08-29T07:13:15.144Z,6180.00
2023-08-29T07:14:15.120Z,6228.00
2023-08-29T07:15:15.146Z,6268.00
2023-08-29T07:16:15.163Z,6316.00
2023-08-29T07:17:15.194Z,6360.00
2023-08-29T07:18:15.141Z,6416.00
2023-08-29T07:19:15.080Z,6464.00
2023-08-29T07:20:15.068Z,6516.00
2023-08-29T07:21:15.072Z,6572.00
2023-08-29T07:23:15.059Z,6676.00
2023-08-29T07:24:15.813Z,6732.00
2023-08-29T07:25:15.009Z,6784.00
2023-08-29T07:26:14.987Z,6836.00
2023-08-29T07:27:14.995Z,6884.00
2023-08-29T07:28:15.007Z,6944.00
2023-08-29T07:29:14.989Z,7000.00
2023-08-29T07:30:14.975Z,7052.00
2023-08-29T07:31:15.000Z,7108.00
2023-08-29T07:32:14.934Z,7164.00
2023-08-29T07:33:14.918Z,7216.00
2023-08-29T07:34:14.908Z,7272.00
2023-08-29T07:35:15.060Z,7324.00
2023-08-29T07:36:14.897Z,7384.00
2023-08-29T07:37:14.874Z,7444.00
2023-08-29T07:38:14.881Z,7500.00
2023-08-29T07:39:14.864Z,7556.00
2023-08-29T07:40:14.860Z,7604.00
2023-08-29T07:41:14.827Z,7660.00
2023-08-29T07:42:14.836Z,7716.00
2023-08-29T07:43:14.807Z,7764.00
2023-08-29T07:44:14.805Z,7812.00
2023-08-29T07:45:14.814Z,7864.00
2023-08-29T07:46:14.831Z,7920.00
2023-08-29T07:47:16.121Z,7980.00
2023-08-29T07:48:14.835Z,8032.00
2023-08-29T07:49:14.735Z,8088.00
2023-08-29T07:50:14.766Z,8144.00
2023-08-29T07:51:14.734Z,8204.00
2023-08-29T07:52:14.718Z,8268.00
2023-08-29T07:53:14.721Z,8328.00
2023-08-29T07:54:14.788Z,8396.00
2023-08-29T07:55:14.678Z,8456.00
2023-08-29T07:56:14.688Z,8524.00
2023-08-29T07:57:14.681Z,8584.00
2023-08-29T07:58:14.667Z,8644.00
2023-08-29T07:59:14.649Z,8708.00
2023-08-29T08:00:14.673Z,8768.00
2023-08-29T08:01:14.653Z,8828.00
2023-08-29T08:02:14.616Z,8884.00
2023-08-29T08:03:14.595Z,8936.00
2023-08-29T08:04:14.648Z,8976.00
2023-08-29T08:05:14.581Z,9024.00
2023-08-29T08:06:14.644Z,9068.00
2023-08-29T08:07:14.547Z,9100.00
2023-08-29T08:08:14.553Z,9128.00
2023-08-29T08:09:14.529Z,9148.00
2023-08-29T08:10:14.545Z,9168.00
2023-08-29T08:11:14.509Z,9180.00
2023-08-29T08:12:14.501Z,9188.00
2023-08-29T08:13:14.525Z,9196.00
2023-08-29T08:14:14.495Z,9208.00
2023-08-29T08:15:14.458Z,9224.00
2023-08-29T08:16:14.535Z,9228.00
2023-08-29T08:17:14.477Z,9232.00
2023-08-29T08:18:14.490Z,9236.00
2023-08-29T08:19:14.597Z,9236.00
2023-08-29T08:20:14.448Z,9244.00
2023-08-29T08:21:14.436Z,9252.00
2023-08-29T08:22:14.409Z,9264.00
2023-08-29T08:23:14.371Z,9276.00
2023-08-29T08:24:14.369Z,9292.00
2023-08-29T08:25:14.370Z,9308.00
2023-08-29T08:26:14.356Z,9324.00
2023-08-29T08:27:14.333Z,9348.00
2023-08-29T08:28:14.331Z,9384.00
2023-08-29T08:29:14.328Z,9424.00
2023-08-29T08:30:14.333Z,9472.00
2023-08-29T08:31:14.276Z,9524.00
2023-08-29T08:32:14.289Z,9576.00
2023-08-29T08:33:14.329Z,9628.00
2023-08-29T08:34:14.266Z,9692.00
2023-08-29T08:35:14.282Z,9740.00
2023-08-29T08:36:14.273Z,9800.00
2023-08-29T08:37:14.313Z,9856.00
2023-08-29T08:38:22.028Z,9916.00
2023-08-29T08:39:14.203Z,9988.00
2023-08-29T08:40:14.198Z,10064.00
2023-08-29T08:41:14.179Z,10144.00
2023-08-29T08:42:14.167Z,10228.00
2023-08-29T08:43:14.201Z,10320.00
2023-08-29T08:44:14.183Z,10408.00
2023-08-29T08:45:14.140Z,10504.00
2023-08-29T08:46:14.150Z,10604.00
2023-08-29T08:47:14.106Z,10704.00
2023-08-29T08:48:14.128Z,10788.00
2023-08-29T08:49:14.100Z,10872.00
2023-08-29T08:50:14.108Z,10944.00
2023-08-29T08:51:14.083Z,11004.00
2023-08-29T08:52:14.068Z,11052.00
2023-08-29T08:53:14.046Z,11092.00
2023-08-29T08:54:14.045Z,11120.00
2023-08-29T08:55:14.040Z,11136.00
2023-08-29T08:56:14.018Z,11144.00
2023-08-29T08:57:13.996Z,11140.00
2023-08-29T08:58:14.010Z,11136.00
2023-08-29T08:59:13.980Z,11136.00
2023-08-29T09:00:13.976Z,11128.00
2023-08-29T09:01:13.975Z,11120.00
2023-08-29T09:02:13.986Z,11104.00
2023-08-29T09:03:13.988Z,11100.00
2023-08-29T09:04:13.950Z,11092.00
2023-08-29T09:05:13.908Z,11068.00
2023-08-29T09:06:14.149Z,11036.00
2023-08-29T09:07:13.911Z,11008.00
2023-08-29T09:08:13.907Z,11004.00
2023-08-29T09:09:13.879Z,11016.00
2023-08-29T09:10:13.881Z,11048.00
2023-08-29T09:11:13.850Z,11064.00
2023-08-29T09:12:13.850Z,11076.00
2023-08-29T09:13:13.834Z,11104.00
2023-08-29T09:14:14.169Z,11156.00
2023-08-29T09:15:13.814Z,11204.00
2023-08-29T09:16:13.838Z,11272.00
2023-08-29T09:17:13.797Z,11336.00
2023-08-29T09:18:13.786Z,11384.00
2023-08-29T09:19:13.789Z,11452.00
2023-08-29T09:20:13.785Z,11540.00
2023-08-29T09:21:13.742Z,11628.00
2023-08-29T09:22:13.746Z,11748.00
2023-08-29T09:23:13.713Z,11904.00
2023-08-29T09:24:13.737Z,12068.00
2023-08-29T09:25:13.694Z,12180.00
2023-08-29T09:26:13.726Z,12316.00
2023-08-29T09:27:13.680Z,12492.00
2023-08-29T09:28:13.676Z,12668.00
2023-08-29T09:29:13.653Z,12784.00
2023-08-29T09:30:13.655Z,12912.00
2023-08-29T09:31:13.660Z,13100.00
2023-08-29T09:32:13.630Z,13272.00
2023-08-29T09:33:13.622Z,13476.00
2023-08-29T09:34:13.620Z,13644.00
2023-08-29T09:35:13.597Z,13768.00
2023-08-29T09:36:13.591Z,13792.00
2023-08-29T09:37:13.578Z,13736.00
2023-08-29T09:38:13.734Z,13892.00
2023-08-29T09:39:13.567Z,14088.00
2023-08-29T09:40:30.748Z,14192.00
2023-08-29T09:41:14.535Z,14220.00
2023-08-29T09:42:13.527Z,14192.00
2023-08-29T09:43:13.502Z,14300.00
2023-08-29T09:44:13.513Z,14424.00
2023-08-29T09:45:13.487Z,14444.00
2023-08-29T09:46:13.543Z,14348.00
2023-08-29T09:47:13.464Z,14404.00
2023-08-29T09:48:13.623Z,14688.00
2023-08-29T09:49:13.433Z,14752.00
2023-08-29T09:50:13.460Z,14752.00
2023-08-29T09:51:13.414Z,15104.00
2023-08-29T09:52:13.438Z,15136.00
2023-08-29T09:53:13.421Z,14944.00
2023-08-29T09:54:13.403Z,14624.00
2023-08-29T09:55:13.383Z,13868.00
2023-08-29T09:56:13.374Z,13568.00
2023-08-29T09:57:13.372Z,13284.00
2023-08-29T09:58:13.380Z,13020.00
2023-08-29T09:59:13.358Z,13016.00
2023-08-29T10:00:13.438Z,13044.00
2023-08-29T10:01:13.352Z,13120.00
2023-08-29T10:02:13.328Z,13284.00
2023-08-29T10:03:13.341Z,13464.00
2023-08-29T10:04:13.285Z,13620.00
2023-08-29T10:05:13.268Z,13480.00
2023-08-29T10:06:13.267Z,13544.00
2023-08-29T10:07:13.255Z,13684.00
2023-08-29T10:08:13.245Z,13864.00
2023-08-29T10:09:13.309Z,14308.00
2023-08-29T10:10:13.231Z,14848.00
2023-08-29T10:11:13.205Z,15264.00
2023-08-29T10:12:13.228Z,15648.00
2023-08-29T10:13:13.199Z,16192.00
2023-08-29T10:14:13.186Z,16576.00
2023-08-29T10:15:13.159Z,16928.00
2023-08-29T10:16:13.165Z,17280.00
2023-08-29T10:17:25.319Z,17536.00
2023-08-29T10:18:14.142Z,17984.00
2023-08-29T10:19:13.122Z,18432.00
2023-08-29T10:20:13.125Z,18880.00
2023-08-29T10:21:13.107Z,19232.00
2023-08-29T10:22:13.105Z,19520.00
2023-08-29T10:23:13.076Z,19616.00
2023-08-29T10:24:13.089Z,19520.00
2023-08-29T10:25:13.053Z,19360.00
2023-08-29T10:26:13.068Z,19136.00
2023-08-29T10:27:13.035Z,18912.00
2023-08-29T10:28:13.054Z,18880.00
2023-08-29T10:29:13.006Z,19040.00
2023-08-29T10:30:13.002Z,19136.00
2023-08-29T10:31:12.995Z,19040.00
2023-08-29T10:32:12.995Z,18848.00
2023-08-29T10:33:13.055Z,18816.00
2023-08-29T10:34:12.981Z,18784.00
2023-08-29T10:35:12.944Z,18688.00
2023-08-29T10:36:12.949Z,18560.00
2023-08-29T10:37:12.932Z,18112.00
2023-08-29T10:38:14.860Z,17824.00
2023-08-29T10:39:12.913Z,17568.00
2023-08-29T10:40:13.081Z,17344.00
2023-08-29T10:41:12.896Z,17088.00
2023-08-29T10:42:12.894Z,17024.00
2023-08-29T10:43:12.861Z,16384.00
2023-08-29T10:44:12.870Z,15968.00
2023-08-29T10:45:12.854Z,15808.00
2023-08-29T10:46:12.867Z,15712.00
2023-08-29T10:47:12.832Z,15680.00
2023-08-29T10:48:12.834Z,15616.00
2023-08-29T10:49:12.838Z,15776.00
2023-08-29T10:50:12.808Z,15968.00
2023-08-29T10:51:12.859Z,16352.00
2023-08-29T10:52:12.782Z,16640.00
2023-08-29T10:53:12.760Z,17056.00
2023-08-29T10:54:12.815Z,17376.00
2023-08-29T10:55:12.747Z,18112.00
2023-08-29T10:56:12.741Z,18720.00
2023-08-29T10:57:12.709Z,19168.00
2023-08-29T10:58:12.732Z,19680.00
2023-08-29T10:59:12.734Z,20192.00
2023-08-29T11:00:12.774Z,20448.00
2023-08-29T11:01:12.687Z,21184.00
2023-08-29T11:02:12.693Z,21408.00
2023-08-29T11:03:12.679Z,22496.00
2023-08-29T11:04:12.732Z,23424.00
2023-08-29T11:05:12.639Z,23904.00
2023-08-29T11:06:12.657Z,25184.00
2023-08-29T11:07:12.605Z,25760.00
2023-08-29T11:08:12.645Z,26272.00
2023-08-29T11:09:12.590Z,26432.00
2023-08-29T11:10:12.652Z,26016.00
2023-08-29T11:11:12.572Z,22176.00
2023-08-29T11:12:12.581Z,20928.00
2023-08-29T11:13:12.602Z,20736.00
2023-08-29T11:14:12.552Z,20640.00
2023-08-29T11:15:12.527Z,20672.00
2023-08-29T11:16:12.566Z,20768.00
2023-08-29T11:17:12.525Z,21408.00
2023-08-29T11:18:12.685Z,21600.00
2023-08-29T11:19:12.513Z,23712.00
2023-08-29T11:20:12.507Z,23648.00
2023-08-29T11:21:12.463Z,23904.00
2023-08-29T11:22:12.495Z,23968.00
2023-08-29T11:23:12.452Z,24000.00
2023-08-29T11:24:17.098Z,24096.00
2023-08-29T11:25:13.418Z,24032.00
2023-08-29T11:26:12.465Z,24032.00
2023-08-29T11:27:12.406Z,23808.00
2023-08-29T11:28:12.416Z,23072.00
2023-08-29T11:29:12.383Z,21376.00
2023-08-29T11:31:12.394Z,20544.00
2023-08-29T11:32:12.365Z,22112.00
2023-08-29T11:33:12.334Z,22912.00
2023-08-29T11:34:12.339Z,22624.00
2023-08-29T11:35:12.343Z,22464.00
2023-08-29T11:36:12.319Z,21984.00
2023-08-29T11:37:12.308Z,21408.00
2023-08-29T11:38:12.293Z,23136.00
2023-08-29T11:39:12.280Z,23392.00
2023-08-29T11:40:12.982Z,23520.00
2023-08-29T11:41:29.401Z,23712.00
2023-08-29T11:42:20.761Z,24064.00
2023-08-29T11:43:48.310Z,24384.00
2023-08-29T11:45:00.678Z,24704.00
2023-08-29T11:45:45.254Z,24960.00
2023-08-29T11:46:13.228Z,25056.00
2023-08-29T11:47:12.201Z,25376.00
2023-08-29T11:48:12.264Z,26240.00
2023-08-29T11:49:12.162Z,27136.00
2023-08-29T11:50:12.156Z,27232.00
2023-08-29T11:51:12.149Z,28320.00
2023-08-29T11:52:12.132Z,29664.00
2023-08-29T11:53:12.135Z,29248.00
2023-08-29T11:54:12.112Z,29568.00
2023-08-29T11:55:12.133Z,29504.00
2023-08-29T11:56:12.090Z,31072.00
2023-08-29T11:57:12.125Z,32128.00
2023-08-29T11:58:12.067Z,31328.00
2023-08-29T11:59:12.093Z,30944.00
2023-08-29T12:00:12.208Z,32320.00
2023-08-29T12:01:12.086Z,27360.00
2023-08-29T12:02:12.029Z,24768.00
2023-08-29T12:03:12.023Z,25280.00
2023-08-29T12:04:12.066Z,31904.00
2023-08-29T12:05:12.000Z,32864.00
2023-08-29T12:06:11.976Z,24128.00
2023-08-29T12:07:11.981Z,23296.00
2023-08-29T12:08:11.979Z,24992.00
2023-08-29T12:09:11.955Z,35040.00
2023-08-29T12:10:11.933Z,34048.00
2023-08-29T12:11:11.950Z,24224.00
2023-08-29T12:12:11.969Z,33216.00
2023-08-29T12:13:11.913Z,37568.00
2023-08-29T12:14:11.901Z,36672.00
2023-08-29T12:15:12.163Z,32224.00
2023-08-29T12:16:11.928Z,29056.00
2023-08-29T12:17:11.871Z,34944.00
2023-08-29T12:18:11.858Z,35776.00
2023-08-29T12:19:11.863Z,36544.00
2023-08-29T12:20:11.835Z,37600.00
2023-08-29T12:21:11.835Z,38656.00
2023-08-29T12:22:11.804Z,29760.00
2023-08-29T12:23:11.832Z,31104.00
2023-08-29T12:24:11.844Z,41344.00
2023-08-29T12:25:11.795Z,42432.00
2023-08-29T12:26:11.784Z,44672.00